sensor_id;sensor_type;location;lat;lon;timestamp;P1;durP1;ratioP1;P2;durP2;ratioP2
38455;SDS011;24237;50.106;20.014;2023-03-21T00:02:16;123.88;;;70.85;;
38455;SDS011;24237;50.106;20.014;2023-03-21T00:04:42;126.22;;;72.15;;
38455;SDS011;24237;50.106;20.014;2023-03-21T00:07:08;134.32;;;73.43;;
38455;SDS011;24237;50.106;20.014;2023-03-21T00:09:33;133.45;;;75.18;;
38455;SDS011;24237;50.106;20.014;2023-03-21T00:11:59;132.95;;;72.60;;
38455;SDS011;24237;50.106;20.014;2023-03-21T00:14:25;131.85;;;72.75;;
38455;SDS011;24237;50.106;20.014;2023-03-21T00:16:54;126.13;;;73.47;;
38455;SDS011;24237;50.106;20.014;2023-03-21T00:19:21;125.20;;;72.55;;
38455;SDS011;24237;50.106;20.014;2023-03-21T00:21:49;107.78;;;61.85;;
38455;SDS011;24237;50.106;20.014;2023-03-21T00:24:16;103.35;;;57.97;;
38455;SDS011;24237;50.106;20.014;2023-03-21T00:26:42;106.97;;;59.40;;
38455;SDS011;24237;50.106;20.014;2023-03-21T00:29:08;102.53;;;56.03;;
38455;SDS011;24237;50.106;20.014;2023-03-21T00:31:33;109.68;;;60.22;;
38455;SDS011;24237;50.106;20.014;2023-03-21T00:33:59;102.15;;;59.42;;
38455;SDS011;24237;50.106;20.014;2023-03-21T00:36:25;116.15;;;64.85;;
38455;SDS011;24237;50.106;20.014;2023-03-21T00:38:51;116.53;;;68.20;;
38455;SDS011;24237;50.106;20.014;2023-03-21T00:41:18;108.18;;;63.47;;
38455;SDS011;24237;50.106;20.014;2023-03-21T00:43:43;104.80;;;60.40;;
38455;SDS011;24237;50.106;20.014;2023-03-21T00:46:10;111.00;;;60.95;;
38455;SDS011;24237;50.106;20.014;2023-03-21T00:48:36;99.25;;;56.08;;
38455;SDS011;24237;50.106;20.014;2023-03-21T00:51:01;98.28;;;54.55;;
38455;SDS011;24237;50.106;20.014;2023-03-21T00:53:36;100.18;;;53.33;;
38455;SDS011;24237;50.106;20.014;2023-03-21T00:56:01;98.53;;;54.25;;
38455;SDS011;24237;50.106;20.014;2023-03-21T00:58:27;98.05;;;53.58;;
38455;SDS011;24237;50.106;20.014;2023-03-21T01:00:53;89.75;;;49.72;;
38455;SDS011;24237;50.106;20.014;2023-03-21T01:03:18;93.28;;;52.70;;
38455;SDS011;24237;50.106;20.014;2023-03-21T01:05:46;103.65;;;54.58;;
38455;SDS011;24237;50.106;20.014;2023-03-21T01:08:29;96.50;;;51.72;;
38455;SDS011;24237;50.106;20.014;2023-03-21T01:11:03;90.38;;;50.35;;
38455;SDS011;24237;50.106;20.014;2023-03-21T01:13:31;88.05;;;50.05;;
38455;SDS011;24237;50.106;20.014;2023-03-21T01:15:57;91.93;;;49.33;;
38455;SDS011;24237;50.106;20.014;2023-03-21T01:18:24;83.65;;;49.08;;
38455;SDS011;24237;50.106;20.014;2023-03-21T01:20:53;95.10;;;49.38;;
38455;SDS011;24237;50.106;20.014;2023-03-21T01:23:21;81.75;;;48.20;;
38455;SDS011;24237;50.106;20.014;2023-03-21T01:25:48;82.55;;;48.10;;
38455;SDS011;24237;50.106;20.014;2023-03-21T01:28:14;82.03;;;47.47;;
38455;SDS011;24237;50.106;20.014;2023-03-21T01:30:44;82.85;;;48.38;;
38455;SDS011;24237;50.106;20.014;2023-03-21T01:33:13;88.70;;;51.60;;
38455;SDS011;24237;50.106;20.014;2023-03-21T01:35:40;78.75;;;46.45;;
38455;SDS011;24237;50.106;20.014;2023-03-21T01:38:06;92.47;;;50.88;;
38455;SDS011;24237;50.106;20.014;2023-03-21T01:40:31;88.75;;;48.10;;
38455;SDS011;24237;50.106;20.014;2023-03-21T01:42:57;85.78;;;48.25;;
38455;SDS011;24237;50.106;20.014;2023-03-21T01:48:25;83.10;;;48.83;;
38455;SDS011;24237;50.106;20.014;2023-03-21T01:50:52;90.03;;;48.70;;
38455;SDS011;24237;50.106;20.014;2023-03-21T01:53:19;84.18;;;47.65;;
38455;SDS011;24237;50.106;20.014;2023-03-21T01:55:52;80.78;;;45.25;;
38455;SDS011;24237;50.106;20.014;2023-03-21T01:58:18;85.85;;;47.42;;
38455;SDS011;24237;50.106;20.014;2023-03-21T02:00:45;81.32;;;46.75;;
38455;SDS011;24237;50.106;20.014;2023-03-21T02:03:13;89.15;;;49.65;;
38455;SDS011;24237;50.106;20.014;2023-03-21T02:08:17;79.97;;;45.75;;
38455;SDS011;24237;50.106;20.014;2023-03-21T02:10:45;77.93;;;45.75;;
38455;SDS011;24237;50.106;20.014;2023-03-21T02:13:13;72.63;;;44.03;;
38455;SDS011;24237;50.106;20.014;2023-03-21T02:15:41;81.35;;;45.38;;
38455;SDS011;24237;50.106;20.014;2023-03-21T02:29:03;78.05;;;44.88;;
38455;SDS011;24237;50.106;20.014;2023-03-21T02:32:06;81.20;;;45.08;;
38455;SDS011;24237;50.106;20.014;2023-03-21T02:37:38;80.32;;;46.63;;
38455;SDS011;24237;50.106;20.014;2023-03-21T02:40:11;78.50;;;45.28;;
38455;SDS011;24237;50.106;20.014;2023-03-21T02:45:29;85.75;;;46.35;;
38455;SDS011;24237;50.106;20.014;2023-03-21T02:48:10;78.38;;;44.58;;
38455;SDS011;24237;50.106;20.014;2023-03-21T02:50:45;75.68;;;45.20;;
38455;SDS011;24237;50.106;20.014;2023-03-21T02:53:15;81.45;;;45.25;;
38455;SDS011;24237;50.106;20.014;2023-03-21T02:55:44;75.38;;;43.70;;
38455;SDS011;24237;50.106;20.014;2023-03-21T02:58:12;77.13;;;44.95;;
38455;SDS011;24237;50.106;20.014;2023-03-21T03:00:41;80.43;;;46.20;;
38455;SDS011;24237;50.106;20.014;2023-03-21T03:03:08;85.65;;;48.42;;
38455;SDS011;24237;50.106;20.014;2023-03-21T03:05:36;82.00;;;47.83;;
38455;SDS011;24237;50.106;20.014;2023-03-21T03:11:04;87.45;;;47.08;;
38455;SDS011;24237;50.106;20.014;2023-03-21T03:13:43;86.90;;;48.67;;
38455;SDS011;24237;50.106;20.014;2023-03-21T03:16:19;82.68;;;48.75;;
38455;SDS011;24237;50.106;20.014;2023-03-21T03:18:53;84.30;;;47.60;;
38455;SDS011;24237;50.106;20.014;2023-03-21T03:21:23;84.07;;;47.28;;
38455;SDS011;24237;50.106;20.014;2023-03-21T03:23:58;83.97;;;48.80;;
38455;SDS011;24237;50.106;20.014;2023-03-21T03:26:47;92.30;;;50.65;;
38455;SDS011;24237;50.106;20.014;2023-03-21T03:29:20;84.93;;;48.95;;
38455;SDS011;24237;50.106;20.014;2023-03-21T03:34:36;87.03;;;50.17;;
38455;SDS011;24237;50.106;20.014;2023-03-21T03:37:06;89.30;;;51.60;;
38455;SDS011;24237;50.106;20.014;2023-03-21T03:39:36;93.00;;;53.95;;
38455;SDS011;24237;50.106;20.014;2023-03-21T03:42:14;102.40;;;52.72;;
38455;SDS011;24237;50.106;20.014;2023-03-21T03:44:42;88.90;;;48.65;;
38455;SDS011;24237;50.106;20.014;2023-03-21T03:47:10;91.93;;;51.00;;
38455;SDS011;24237;50.106;20.014;2023-03-21T03:49:42;95.75;;;51.38;;
38455;SDS011;24237;50.106;20.014;2023-03-21T03:52:17;96.78;;;54.75;;
38455;SDS011;24237;50.106;20.014;2023-03-21T03:54:47;111.05;;;60.60;;
38455;SDS011;24237;50.106;20.014;2023-03-21T03:57:15;103.28;;;60.90;;
38455;SDS011;24237;50.106;20.014;2023-03-21T03:59:43;113.22;;;63.75;;
38455;SDS011;24237;50.106;20.014;2023-03-21T04:02:09;103.40;;;57.72;;
38455;SDS011;24237;50.106;20.014;2023-03-21T04:04:36;92.05;;;53.50;;
38455;SDS011;24237;50.106;20.014;2023-03-21T04:07:02;105.97;;;57.88;;
38455;SDS011;24237;50.106;20.014;2023-03-21T04:09:29;88.75;;;53.15;;
38455;SDS011;24237;50.106;20.014;2023-03-21T04:11:55;95.57;;;53.53;;
38455;SDS011;24237;50.106;20.014;2023-03-21T04:14:22;93.55;;;55.42;;
38455;SDS011;24237;50.106;20.014;2023-03-21T04:16:49;93.90;;;52.70;;
38455;SDS011;24237;50.106;20.014;2023-03-21T04:19:19;92.28;;;53.97;;
38455;SDS011;24237;50.106;20.014;2023-03-21T04:21:45;92.28;;;54.40;;
38455;SDS011;24237;50.106;20.014;2023-03-21T04:24:11;100.57;;;56.90;;
38455;SDS011;24237;50.106;20.014;2023-03-21T04:26:38;104.30;;;58.67;;
38455;SDS011;24237;50.106;20.014;2023-03-21T04:29:04;95.32;;;55.67;;
38455;SDS011;24237;50.106;20.014;2023-03-21T04:31:30;96.15;;;53.45;;
38455;SDS011;24237;50.106;20.014;2023-03-21T04:34:02;102.95;;;56.80;;
38455;SDS011;24237;50.106;20.014;2023-03-21T04:36:33;92.45;;;53.67;;
38455;SDS011;24237;50.106;20.014;2023-03-21T04:39:06;93.82;;;53.13;;
38455;SDS011;24237;50.106;20.014;2023-03-21T04:41:37;90.05;;;52.17;;
38455;SDS011;24237;50.106;20.014;2023-03-21T04:44:10;95.75;;;53.03;;
38455;SDS011;24237;50.106;20.014;2023-03-21T04:46:37;93.97;;;52.47;;
38455;SDS011;24237;50.106;20.014;2023-03-21T04:49:03;94.53;;;53.40;;
38455;SDS011;24237;50.106;20.014;2023-03-21T04:53:56;99.57;;;53.65;;
38455;SDS011;24237;50.106;20.014;2023-03-21T04:56:23;95.47;;;52.20;;
38455;SDS011;24237;50.106;20.014;2023-03-21T04:58:55;94.05;;;54.40;;
38455;SDS011;24237;50.106;20.014;2023-03-21T05:01:26;96.97;;;54.60;;
38455;SDS011;24237;50.106;20.014;2023-03-21T05:04:04;92.28;;;54.58;;
38455;SDS011;24237;50.106;20.014;2023-03-21T05:06:30;94.60;;;54.05;;
38455;SDS011;24237;50.106;20.014;2023-03-21T05:08:56;90.85;;;51.97;;
38455;SDS011;24237;50.106;20.014;2023-03-21T05:11:29;94.75;;;53.83;;
38455;SDS011;24237;50.106;20.014;2023-03-21T05:13:56;99.53;;;54.30;;
38455;SDS011;24237;50.106;20.014;2023-03-21T05:16:23;96.05;;;53.22;;
38455;SDS011;24237;50.106;20.014;2023-03-21T05:18:54;95.65;;;53.55;;
38455;SDS011;24237;50.106;20.014;2023-03-21T05:21:21;95.15;;;53.33;;
38455;SDS011;24237;50.106;20.014;2023-03-21T05:23:47;92.70;;;52.03;;
38455;SDS011;24237;50.106;20.014;2023-03-21T05:26:20;85.03;;;50.00;;
38455;SDS011;24237;50.106;20.014;2023-03-21T05:28:46;89.45;;;48.97;;
38455;SDS011;24237;50.106;20.014;2023-03-21T05:31:16;85.10;;;48.25;;
38455;SDS011;24237;50.106;20.014;2023-03-21T05:33:43;81.70;;;46.58;;
38455;SDS011;24237;50.106;20.014;2023-03-21T05:36:09;80.15;;;45.53;;
38455;SDS011;24237;50.106;20.014;2023-03-21T05:38:36;80.15;;;46.35;;
38455;SDS011;24237;50.106;20.014;2023-03-21T05:41:02;80.20;;;45.78;;
38455;SDS011;24237;50.106;20.014;2023-03-21T05:43:31;86.57;;;44.90;;
38455;SDS011;24237;50.106;20.014;2023-03-21T05:45:57;82.75;;;46.25;;
38455;SDS011;24237;50.106;20.014;2023-03-21T05:48:23;85.88;;;46.05;;
38455;SDS011;24237;50.106;20.014;2023-03-21T05:50:48;93.22;;;48.08;;
38455;SDS011;24237;50.106;20.014;2023-03-21T05:53:14;87.65;;;45.15;;
38455;SDS011;24237;50.106;20.014;2023-03-21T05:55:39;91.47;;;46.00;;
38455;SDS011;24237;50.106;20.014;2023-03-21T05:58:05;92.78;;;46.55;;
38455;SDS011;24237;50.106;20.014;2023-03-21T06:00:31;90.13;;;45.97;;
38455;SDS011;24237;50.106;20.014;2023-03-21T06:02:56;88.70;;;44.03;;
38455;SDS011;24237;50.106;20.014;2023-03-21T06:05:22;90.43;;;44.30;;
38455;SDS011;24237;50.106;20.014;2023-03-21T06:08:07;86.22;;;43.78;;
38455;SDS011;24237;50.106;20.014;2023-03-21T06:10:33;89.97;;;43.38;;
38455;SDS011;24237;50.106;20.014;2023-03-21T06:12:59;91.65;;;44.03;;
38455;SDS011;24237;50.106;20.014;2023-03-21T06:15:24;81.40;;;43.40;;
38455;SDS011;24237;50.106;20.014;2023-03-21T06:17:50;82.22;;;42.15;;
38455;SDS011;24237;50.106;20.014;2023-03-21T06:20:16;79.40;;;40.85;;
38455;SDS011;24237;50.106;20.014;2023-03-21T06:22:42;77.00;;;40.03;;
38455;SDS011;24237;50.106;20.014;2023-03-21T06:25:08;78.80;;;39.80;;
38455;SDS011;24237;50.106;20.014;2023-03-21T06:27:34;81.45;;;40.75;;
38455;SDS011;24237;50.106;20.014;2023-03-21T06:30:00;82.30;;;40.83;;
38455;SDS011;24237;50.106;20.014;2023-03-21T06:32:26;77.53;;;38.15;;
38455;SDS011;24237;50.106;20.014;2023-03-21T06:34:51;80.13;;;39.70;;
38455;SDS011;24237;50.106;20.014;2023-03-21T06:37:17;72.80;;;38.40;;
38455;SDS011;24237;50.106;20.014;2023-03-21T06:39:43;72.20;;;36.85;;
38455;SDS011;24237;50.106;20.014;2023-03-21T06:42:10;77.82;;;36.42;;
38455;SDS011;24237;50.106;20.014;2023-03-21T06:44:37;77.45;;;39.35;;
38455;SDS011;24237;50.106;20.014;2023-03-21T06:47:02;71.65;;;37.08;;
38455;SDS011;24237;50.106;20.014;2023-03-21T06:49:28;66.15;;;34.05;;
38455;SDS011;24237;50.106;20.014;2023-03-21T06:51:54;64.03;;;33.03;;
38455;SDS011;24237;50.106;20.014;2023-03-21T06:54:21;71.53;;;33.33;;
38455;SDS011;24237;50.106;20.014;2023-03-21T06:56:46;64.00;;;32.15;;
38455;SDS011;24237;50.106;20.014;2023-03-21T06:59:12;58.67;;;31.52;;
38455;SDS011;24237;50.106;20.014;2023-03-21T07:01:38;57.63;;;30.80;;
38455;SDS011;24237;50.106;20.014;2023-03-21T07:04:04;65.32;;;30.58;;
38455;SDS011;24237;50.106;20.014;2023-03-21T07:06:30;63.33;;;30.38;;
38455;SDS011;24237;50.106;20.014;2023-03-21T07:08:56;55.75;;;29.00;;
38455;SDS011;24237;50.106;20.014;2023-03-21T07:11:22;53.72;;;28.52;;
38455;SDS011;24237;50.106;20.014;2023-03-21T07:13:48;48.65;;;25.00;;
38455;SDS011;24237;50.106;20.014;2023-03-21T07:16:15;46.15;;;24.17;;
38455;SDS011;24237;50.106;20.014;2023-03-21T07:18:42;43.75;;;24.05;;
38455;SDS011;24237;50.106;20.014;2023-03-21T07:21:07;43.13;;;23.30;;
38455;SDS011;24237;50.106;20.014;2023-03-21T07:23:34;39.72;;;21.75;;
38455;SDS011;24237;50.106;20.014;2023-03-21T07:26:00;44.38;;;23.98;;
38455;SDS011;24237;50.106;20.014;2023-03-21T07:28:26;36.67;;;20.55;;
38455;SDS011;24237;50.106;20.014;2023-03-21T07:30:56;33.92;;;19.83;;
38455;SDS011;24237;50.106;20.014;2023-03-21T07:33:24;32.63;;;19.38;;
38455;SDS011;24237;50.106;20.014;2023-03-21T07:35:50;40.38;;;21.23;;
38455;SDS011;24237;50.106;20.014;2023-03-21T07:38:17;35.40;;;18.77;;
38455;SDS011;24237;50.106;20.014;2023-03-21T07:40:44;40.65;;;22.70;;
38455;SDS011;24237;50.106;20.014;2023-03-21T07:43:11;42.20;;;22.33;;
38455;SDS011;24237;50.106;20.014;2023-03-21T07:45:36;39.85;;;22.33;;
38455;SDS011;24237;50.106;20.014;2023-03-21T07:48:02;42.78;;;23.33;;
38455;SDS011;24237;50.106;20.014;2023-03-21T07:50:28;44.97;;;24.08;;
38455;SDS011;24237;50.106;20.014;2023-03-21T07:52:54;39.63;;;23.70;;
38455;SDS011;24237;50.106;20.014;2023-03-21T07:55:19;41.40;;;23.58;;
38455;SDS011;24237;50.106;20.014;2023-03-21T07:57:48;41.72;;;22.80;;
38455;SDS011;24237;50.106;20.014;2023-03-21T08:00:15;43.55;;;22.75;;
38455;SDS011;24237;50.106;20.014;2023-03-21T08:02:47;37.42;;;21.98;;
38455;SDS011;24237;50.106;20.014;2023-03-21T08:05:14;37.80;;;21.38;;
38455;SDS011;24237;50.106;20.014;2023-03-21T08:07:43;38.35;;;22.90;;
38455;SDS011;24237;50.106;20.014;2023-03-21T08:10:08;41.67;;;23.13;;
38455;SDS011;24237;50.106;20.014;2023-03-21T08:12:35;40.67;;;21.65;;
38455;SDS011;24237;50.106;20.014;2023-03-21T08:15:01;38.20;;;21.48;;
38455;SDS011;24237;50.106;20.014;2023-03-21T08:17:27;37.42;;;20.92;;
38455;SDS011;24237;50.106;20.014;2023-03-21T08:19:52;38.03;;;21.02;;
38455;SDS011;24237;50.106;20.014;2023-03-21T08:22:18;39.08;;;21.73;;
38455;SDS011;24237;50.106;20.014;2023-03-21T08:24:44;40.53;;;21.25;;
38455;SDS011;24237;50.106;20.014;2023-03-21T08:27:09;43.47;;;23.27;;
38455;SDS011;24237;50.106;20.014;2023-03-21T08:29:35;38.78;;;20.08;;
38455;SDS011;24237;50.106;20.014;2023-03-21T08:32:04;44.35;;;25.05;;
38455;SDS011;24237;50.106;20.014;2023-03-21T08:34:30;40.47;;;23.85;;
38455;SDS011;24237;50.106;20.014;2023-03-21T08:36:56;49.60;;;25.75;;
38455;SDS011;24237;50.106;20.014;2023-03-21T08:39:21;49.58;;;26.08;;
38455;SDS011;24237;50.106;20.014;2023-03-21T08:41:48;37.47;;;20.73;;
38455;SDS011;24237;50.106;20.014;2023-03-21T08:44:14;37.38;;;18.20;;
38455;SDS011;24237;50.106;20.014;2023-03-21T08:46:41;44.03;;;21.58;;
38455;SDS011;24237;50.106;20.014;2023-03-21T08:49:06;45.67;;;23.67;;
38455;SDS011;24237;50.106;20.014;2023-03-21T08:51:32;43.45;;;21.73;;
38455;SDS011;24237;50.106;20.014;2023-03-21T08:53:58;42.13;;;21.52;;
38455;SDS011;24237;50.106;20.014;2023-03-21T08:56:24;45.85;;;24.35;;
38455;SDS011;24237;50.106;20.014;2023-03-21T08:58:49;47.80;;;25.02;;
38455;SDS011;24237;50.106;20.014;2023-03-21T09:01:15;50.40;;;25.48;;
38455;SDS011;24237;50.106;20.014;2023-03-21T09:03:41;46.35;;;24.38;;
38455;SDS011;24237;50.106;20.014;2023-03-21T09:06:08;41.63;;;24.05;;
38455;SDS011;24237;50.106;20.014;2023-03-21T09:08:34;38.80;;;22.60;;
38455;SDS011;24237;50.106;20.014;2023-03-21T09:11:01;41.65;;;23.42;;
38455;SDS011;24237;50.106;20.014;2023-03-21T09:13:26;39.05;;;23.98;;
38455;SDS011;24237;50.106;20.014;2023-03-21T09:15:53;39.78;;;23.65;;
38455;SDS011;24237;50.106;20.014;2023-03-21T09:18:19;46.10;;;24.37;;
38455;SDS011;24237;50.106;20.014;2023-03-21T09:20:47;43.15;;;24.35;;
38455;SDS011;24237;50.106;20.014;2023-03-21T09:23:14;49.47;;;25.98;;
38455;SDS011;24237;50.106;20.014;2023-03-21T09:25:40;44.97;;;24.40;;
38455;SDS011;24237;50.106;20.014;2023-03-21T09:28:08;44.88;;;24.48;;
38455;SDS011;24237;50.106;20.014;2023-03-21T09:30:35;49.25;;;26.58;;
38455;SDS011;24237;50.106;20.014;2023-03-21T09:33:01;44.90;;;25.15;;
38455;SDS011;24237;50.106;20.014;2023-03-21T09:35:30;51.63;;;27.05;;
38455;SDS011;24237;50.106;20.014;2023-03-21T09:37:56;48.70;;;27.05;;
38455;SDS011;24237;50.106;20.014;2023-03-21T09:46:35;44.30;;;25.30;;
38455;SDS011;24237;50.106;20.014;2023-03-21T09:49:03;41.58;;;22.83;;
38455;SDS011;24237;50.106;20.014;2023-03-21T09:51:42;41.13;;;24.13;;
38455;SDS011;24237;50.106;20.014;2023-03-21T09:54:18;40.15;;;23.75;;
38455;SDS011;24237;50.106;20.014;2023-03-21T09:56:55;39.28;;;23.33;;
38455;SDS011;24237;50.106;20.014;2023-03-21T09:59:30;43.45;;;25.17;;
38455;SDS011;24237;50.106;20.014;2023-03-21T10:02:05;39.28;;;23.20;;
38455;SDS011;24237;50.106;20.014;2023-03-21T10:04:57;40.83;;;23.10;;
38455;SDS011;24237;50.106;20.014;2023-03-21T10:07:24;43.30;;;24.17;;
38455;SDS011;24237;50.106;20.014;2023-03-21T10:09:54;38.00;;;20.30;;
38455;SDS011;24237;50.106;20.014;2023-03-21T10:12:22;36.78;;;21.63;;
38455;SDS011;24237;50.106;20.014;2023-03-21T10:14:52;36.03;;;21.10;;
38455;SDS011;24237;50.106;20.014;2023-03-21T10:17:26;35.75;;;20.92;;
38455;SDS011;24237;50.106;20.014;2023-03-21T10:20:00;35.33;;;21.35;;
38455;SDS011;24237;50.106;20.014;2023-03-21T10:22:38;33.15;;;18.42;;
38455;SDS011;24237;50.106;20.014;2023-03-21T10:25:04;35.15;;;20.58;;
38455;SDS011;24237;50.106;20.014;2023-03-21T10:27:31;35.88;;;20.05;;
38455;SDS011;24237;50.106;20.014;2023-03-21T10:30:00;36.22;;;19.45;;
38455;SDS011;24237;50.106;20.014;2023-03-21T10:32:31;37.28;;;19.48;;
38455;SDS011;24237;50.106;20.014;2023-03-21T10:34:57;49.00;;;23.23;;
38455;SDS011;24237;50.106;20.014;2023-03-21T10:37:24;40.97;;;20.20;;
38455;SDS011;24237;50.106;20.014;2023-03-21T10:39:51;31.10;;;18.23;;
38455;SDS011;24237;50.106;20.014;2023-03-21T10:44:51;33.15;;;18.90;;
38455;SDS011;24237;50.106;20.014;2023-03-21T10:47:31;39.45;;;19.67;;
38455;SDS011;24237;50.106;20.014;2023-03-21T10:50:02;35.95;;;19.88;;
38455;SDS011;24237;50.106;20.014;2023-03-21T10:52:30;33.20;;;18.00;;
38455;SDS011;24237;50.106;20.014;2023-03-21T10:55:07;33.10;;;18.73;;
38455;SDS011;24237;50.106;20.014;2023-03-21T10:57:46;40.78;;;21.92;;
38455;SDS011;24237;50.106;20.014;2023-03-21T11:00:17;37.25;;;18.95;;
38455;SDS011;24237;50.106;20.014;2023-03-21T11:02:49;34.60;;;19.20;;
38455;SDS011;24237;50.106;20.014;2023-03-21T11:05:24;36.15;;;20.27;;
38455;SDS011;24237;50.106;20.014;2023-03-21T11:08:18;34.20;;;19.40;;
38455;SDS011;24237;50.106;20.014;2023-03-21T11:13:40;37.88;;;18.83;;
38455;SDS011;24237;50.106;20.014;2023-03-21T11:18:41;35.60;;;19.35;;
38455;SDS011;24237;50.106;20.014;2023-03-21T11:21:09;34.35;;;19.00;;
38455;SDS011;24237;50.106;20.014;2023-03-21T11:23:38;38.85;;;20.88;;
38455;SDS011;24237;50.106;20.014;2023-03-21T11:26:09;32.45;;;18.92;;
38455;SDS011;24237;50.106;20.014;2023-03-21T11:28:40;38.47;;;21.17;;
38455;SDS011;24237;50.106;20.014;2023-03-21T11:31:08;39.40;;;21.98;;
38455;SDS011;24237;50.106;20.014;2023-03-21T11:33:38;39.90;;;21.67;;
38455;SDS011;24237;50.106;20.014;2023-03-21T11:38:59;43.30;;;23.83;;
38455;SDS011;24237;50.106;20.014;2023-03-21T11:41:38;44.25;;;24.88;;
38455;SDS011;24237;50.106;20.014;2023-03-21T11:44:05;48.45;;;26.38;;
38455;SDS011;24237;50.106;20.014;2023-03-21T11:46:31;46.60;;;24.67;;
38455;SDS011;24237;50.106;20.014;2023-03-21T11:49:03;55.78;;;28.80;;
38455;SDS011;24237;50.106;20.014;2023-03-21T11:57:23;59.22;;;31.52;;
38455;SDS011;24237;50.106;20.014;2023-03-21T12:02:44;58.20;;;32.03;;
38455;SDS011;24237;50.106;20.014;2023-03-21T12:05:22;62.28;;;32.97;;
38455;SDS011;24237;50.106;20.014;2023-03-21T12:08:01;59.70;;;32.38;;
38455;SDS011;24237;50.106;20.014;2023-03-21T12:10:43;61.90;;;34.78;;
38455;SDS011;24237;50.106;20.014;2023-03-21T12:16:18;62.65;;;34.05;;
38455;SDS011;24237;50.106;20.014;2023-03-21T12:21:38;60.38;;;31.65;;
38455;SDS011;24237;50.106;20.014;2023-03-21T12:30:12;61.75;;;30.45;;
38455;SDS011;24237;50.106;20.014;2023-03-21T12:32:45;53.50;;;28.95;;
38455;SDS011;24237;50.106;20.014;2023-03-21T12:38:08;50.80;;;28.60;;
38455;SDS011;24237;50.106;20.014;2023-03-21T12:43:57;53.50;;;29.23;;
38455;SDS011;24237;50.106;20.014;2023-03-21T12:46:31;52.80;;;28.77;;
38455;SDS011;24237;50.106;20.014;2023-03-21T12:49:31;51.45;;;29.02;;
38455;SDS011;24237;50.106;20.014;2023-03-21T12:52:05;56.00;;;28.48;;
38455;SDS011;24237;50.106;20.014;2023-03-21T12:57:08;52.67;;;25.52;;
38455;SDS011;24237;50.106;20.014;2023-03-21T12:59:53;49.55;;;26.70;;
38455;SDS011;24237;50.106;20.014;2023-03-21T13:08:10;44.42;;;25.33;;
38455;SDS011;24237;50.106;20.014;2023-03-21T13:10:42;54.08;;;26.73;;
38455;SDS011;24237;50.106;20.014;2023-03-21T13:16:12;44.97;;;24.00;;
38455;SDS011;24237;50.106;20.014;2023-03-21T13:19:24;45.30;;;25.10;;
38455;SDS011;24237;50.106;20.014;2023-03-21T13:29:53;47.65;;;22.98;;
38455;SDS011;24237;50.106;20.014;2023-03-21T13:32:38;38.85;;;21.20;;
38455;SDS011;24237;50.106;20.014;2023-03-21T13:35:17;35.78;;;20.48;;
38455;SDS011;24237;50.106;20.014;2023-03-21T13:37:59;39.75;;;20.17;;
38455;SDS011;24237;50.106;20.014;2023-03-21T13:40:40;54.22;;;20.35;;
38455;SDS011;24237;50.106;20.014;2023-03-21T13:51:50;44.95;;;22.90;;
38455;SDS011;24237;50.106;20.014;2023-03-21T13:54:22;44.88;;;24.48;;
38455;SDS011;24237;50.106;20.014;2023-03-21T13:56:57;44.38;;;23.52;;
38455;SDS011;24237;50.106;20.014;2023-03-21T14:05:06;55.72;;;28.85;;
38455;SDS011;24237;50.106;20.014;2023-03-21T14:07:41;56.50;;;28.58;;
38455;SDS011;24237;50.106;20.014;2023-03-21T14:10:21;55.53;;;29.15;;
38455;SDS011;24237;50.106;20.014;2023-03-21T14:12:51;51.75;;;26.58;;
38455;SDS011;24237;50.106;20.014;2023-03-21T14:15:21;49.30;;;25.40;;
38455;SDS011;24237;50.106;20.014;2023-03-21T14:17:56;44.30;;;23.07;;
38455;SDS011;24237;50.106;20.014;2023-03-21T14:20:26;52.63;;;25.40;;
38455;SDS011;24237;50.106;20.014;2023-03-21T14:22:54;31.65;;;17.15;;
38455;SDS011;24237;50.106;20.014;2023-03-21T14:25:20;30.15;;;16.83;;
38455;SDS011;24237;50.106;20.014;2023-03-21T14:27:57;28.63;;;17.05;;
38455;SDS011;24237;50.106;20.014;2023-03-21T14:30:26;30.83;;;17.33;;
38455;SDS011;24237;50.106;20.014;2023-03-21T14:32:57;33.20;;;17.52;;
38455;SDS011;24237;50.106;20.014;2023-03-21T14:35:44;38.97;;;19.85;;
38455;SDS011;24237;50.106;20.014;2023-03-21T14:38:19;34.97;;;17.65;;
38455;SDS011;24237;50.106;20.014;2023-03-21T14:40:49;33.42;;;17.92;;
38455;SDS011;24237;50.106;20.014;2023-03-21T14:43:18;32.40;;;18.73;;
38455;SDS011;24237;50.106;20.014;2023-03-21T14:45:52;37.35;;;20.40;;
38455;SDS011;24237;50.106;20.014;2023-03-21T14:48:20;34.80;;;17.35;;
38455;SDS011;24237;50.106;20.014;2023-03-21T14:51:03;26.35;;;15.20;;
38455;SDS011;24237;50.106;20.014;2023-03-21T14:53:36;28.05;;;16.33;;
38455;SDS011;24237;50.106;20.014;2023-03-21T14:56:06;26.15;;;14.75;;
38455;SDS011;24237;50.106;20.014;2023-03-21T14:58:39;27.63;;;15.50;;
38455;SDS011;24237;50.106;20.014;2023-03-21T15:01:12;32.05;;;15.95;;
38455;SDS011;24237;50.106;20.014;2023-03-21T15:03:45;31.42;;;17.73;;
38455;SDS011;24237;50.106;20.014;2023-03-21T15:06:14;29.08;;;17.25;;
38455;SDS011;24237;50.106;20.014;2023-03-21T15:08:51;27.95;;;16.42;;
38455;SDS011;24237;50.106;20.014;2023-03-21T15:11:33;35.35;;;20.20;;
38455;SDS011;24237;50.106;20.014;2023-03-21T15:14:04;36.45;;;20.33;;
38455;SDS011;24237;50.106;20.014;2023-03-21T15:16:31;36.28;;;19.45;;
38455;SDS011;24237;50.106;20.014;2023-03-21T15:18:58;38.00;;;20.25;;
38455;SDS011;24237;50.106;20.014;2023-03-21T15:24:04;33.10;;;18.45;;
38455;SDS011;24237;50.106;20.014;2023-03-21T15:26:37;31.02;;;18.48;;
38455;SDS011;24237;50.106;20.014;2023-03-21T15:29:04;38.80;;;20.58;;
38455;SDS011;24237;50.106;20.014;2023-03-21T15:31:34;46.67;;;24.65;;
38455;SDS011;24237;50.106;20.014;2023-03-21T15:34:03;36.63;;;20.48;;
38455;SDS011;24237;50.106;20.014;2023-03-21T15:36:33;32.97;;;19.95;;
38455;SDS011;24237;50.106;20.014;2023-03-21T15:39:10;42.05;;;21.33;;
38455;SDS011;24237;50.106;20.014;2023-03-21T15:41:38;35.08;;;18.92;;
38455;SDS011;24237;50.106;20.014;2023-03-21T15:44:09;37.95;;;19.55;;
38455;SDS011;24237;50.106;20.014;2023-03-21T15:51:37;39.92;;;21.73;;
38455;SDS011;24237;50.106;20.014;2023-03-21T15:54:07;58.67;;;26.92;;
38455;SDS011;24237;50.106;20.014;2023-03-21T15:56:41;51.47;;;22.73;;
38455;SDS011;24237;50.106;20.014;2023-03-21T15:59:11;51.20;;;23.42;;
38455;SDS011;24237;50.106;20.014;2023-03-21T16:01:43;46.30;;;19.90;;
38455;SDS011;24237;50.106;20.014;2023-03-21T16:04:11;40.03;;;19.50;;
38455;SDS011;24237;50.106;20.014;2023-03-21T16:06:58;33.65;;;18.33;;
38455;SDS011;24237;50.106;20.014;2023-03-21T16:09:27;27.40;;;16.80;;
38455;SDS011;24237;50.106;20.014;2023-03-21T16:12:02;38.33;;;18.25;;
38455;SDS011;24237;50.106;20.014;2023-03-21T16:14:33;28.65;;;16.33;;
38455;SDS011;24237;50.106;20.014;2023-03-21T16:16:59;36.53;;;17.15;;
38455;SDS011;24237;50.106;20.014;2023-03-21T16:19:25;45.78;;;18.40;;